createdAt,value
2022-09-01T00:01:49.328Z,8.67
2022-09-01T00:04:20.507Z,7.73
2022-09-01T00:06:48.440Z,7.10
2022-09-01T00:09:17.839Z,7.00
2022-09-01T00:11:50.765Z,7.90
2022-09-01T00:14:30.145Z,7.50
2022-09-01T00:17:03.819Z,7.30
2022-09-01T00:19:30.905Z,7.57
2022-09-01T00:21:57.694Z,7.87
2022-09-01T00:24:26.344Z,8.13
2022-09-01T00:26:54.356Z,7.13
2022-09-01T00:29:22.126Z,9.27
2022-09-01T00:31:49.051Z,7.87
2022-09-01T00:34:16.824Z,7.80
2022-09-01T00:36:43.930Z,7.97
2022-09-01T00:39:10.802Z,8.47
2022-09-01T00:41:40.091Z,8.43
2022-09-01T00:44:12.030Z,7.90
2022-09-01T00:46:47.763Z,8.00
2022-09-01T00:49:22.430Z,8.10
2022-09-01T00:51:54.553Z,8.50
2022-09-01T00:54:27.712Z,7.43
2022-09-01T00:56:57.786Z,7.80
2022-09-01T00:59:26.521Z,7.70
2022-09-01T01:01:54.716Z,8.20
2022-09-01T01:04:21.850Z,8.63
2022-09-01T01:06:58.824Z,8.17
2022-09-01T01:09:27.204Z,8.20
2022-09-01T01:11:54.937Z,8.43
2022-09-01T01:14:21.991Z,9.07
2022-09-01T01:16:52.091Z,7.37
2022-09-01T01:19:46.299Z,8.60
2022-09-01T01:22:55.737Z,7.97
2022-09-01T01:25:22.536Z,8.53
2022-09-01T01:27:50.387Z,8.13
2022-09-01T01:30:19.293Z,8.07
2022-09-01T01:32:47.822Z,8.63
2022-09-01T01:35:16.993Z,8.93
2022-09-01T01:37:48.987Z,8.33
2022-09-01T01:40:19.133Z,8.60
2022-09-01T01:42:49.154Z,8.17
2022-09-01T01:45:19.541Z,8.33
2022-09-01T01:47:53.236Z,9.00
2022-09-01T01:50:22.284Z,8.63
2022-09-01T01:52:49.050Z,8.47
2022-09-01T01:55:24.012Z,8.30
2022-09-01T01:57:50.721Z,8.07
2022-09-01T02:00:30.053Z,8.90
2022-09-01T02:02:57.348Z,9.17
2022-09-01T02:05:27.934Z,8.80
2022-09-01T02:08:00.071Z,8.80
2022-09-01T02:10:31.046Z,8.47
2022-09-01T02:13:04.388Z,8.67
2022-09-01T02:15:35.176Z,8.60
2022-09-01T02:18:15.214Z,9.53
2022-09-01T02:20:42.827Z,8.83
2022-09-01T02:23:10.838Z,9.47
2022-09-01T02:25:58.944Z,9.37
2022-09-01T02:28:32.995Z,9.20
2022-09-01T02:30:59.904Z,8.60
2022-09-01T02:33:28.466Z,9.60
2022-09-01T02:35:59.083Z,8.20
2022-09-01T02:38:29.232Z,9.87
2022-09-01T02:40:58.520Z,10.57
2022-09-01T02:43:28.421Z,9.53
2022-09-01T02:45:59.659Z,9.37
2022-09-01T02:48:33.020Z,10.80
2022-09-01T02:51:14.205Z,9.90
2022-09-01T02:53:42.819Z,10.70
2022-09-01T02:56:15.431Z,11.17
2022-09-01T02:58:46.643Z,9.47
2022-09-01T03:01:26.424Z,9.30
2022-09-01T03:03:55.927Z,9.33
2022-09-01T03:06:24.424Z,10.00
2022-09-01T03:08:54.625Z,9.97
2022-09-01T03:11:23.841Z,10.07
2022-09-01T03:13:50.933Z,10.50
2022-09-01T03:16:17.614Z,9.70
2022-09-01T03:18:44.694Z,9.13
2022-09-01T03:21:16.135Z,8.43
2022-09-01T03:23:45.423Z,8.77
2022-09-01T03:26:12.663Z,9.43
2022-09-01T03:28:39.411Z,9.90
2022-09-01T03:31:07.425Z,9.30
2022-09-01T03:33:34.515Z,9.73
2022-09-01T03:36:01.607Z,9.87
2022-09-01T03:38:28.737Z,9.23
2022-09-01T03:41:02.254Z,8.97
2022-09-01T03:43:35.594Z,9.57
2022-09-01T03:46:03.605Z,9.73
2022-09-01T03:48:32.153Z,10.10
2022-09-01T03:51:03.292Z,10.13
2022-09-01T03:53:33.771Z,9.70
2022-09-01T03:56:01.606Z,10.17
2022-09-01T03:58:28.700Z,10.57
2022-09-01T04:00:58.496Z,9.63
2022-09-01T04:03:31.132Z,9.50
2022-09-01T04:06:00.706Z,9.70
2022-09-01T04:08:32.498Z,9.63
2022-09-01T04:11:10.509Z,10.33
2022-09-01T04:13:39.834Z,8.07
2022-09-01T04:16:30.678Z,8.80
2022-09-01T04:18:57.460Z,10.10
2022-09-01T04:21:24.080Z,9.13
2022-09-01T04:23:50.703Z,8.47
2022-09-01T04:26:20.514Z,9.33
2022-09-01T04:28:50.932Z,9.03
2022-09-01T04:31:20.468Z,9.70
2022-09-01T04:33:50.122Z,9.23
2022-09-01T04:36:34.074Z,9.30
2022-09-01T04:39:02.367Z,9.50
2022-09-01T04:41:32.097Z,8.57
2022-09-01T04:44:02.488Z,9.07
2022-09-01T04:46:31.526Z,9.23
2022-09-01T04:48:58.314Z,9.37
2022-09-01T04:51:28.047Z,9.87
2022-09-01T04:53:57.963Z,8.47
2022-09-01T04:56:26.915Z,10.30
2022-09-01T04:58:57.116Z,9.63
2022-09-01T05:01:26.557Z,9.77
2022-09-01T05:04:03.885Z,10.33
2022-09-01T05:06:33.997Z,9.53
2022-09-01T05:09:00.779Z,9.50
2022-09-01T05:11:27.878Z,9.80
2022-09-01T05:13:57.767Z,10.40
2022-09-01T05:16:25.927Z,9.70
2022-09-01T05:18:54.291Z,10.77
2022-09-01T05:21:24.820Z,10.50
2022-09-01T05:23:52.870Z,11.40
2022-09-01T05:26:23.911Z,12.50
2022-09-01T05:28:56.635Z,11.67
2022-09-01T05:31:25.878Z,12.57
2022-09-01T05:33:52.527Z,12.53
2022-09-01T05:36:21.860Z,13.20
2022-09-01T05:38:49.763Z,12.57
2022-09-01T05:41:18.115Z,12.10
2022-09-01T05:43:48.276Z,11.87
2022-09-01T05:46:20.702Z,11.90
2022-09-01T05:48:49.641Z,13.00
2022-09-01T05:51:44.492Z,13.10
2022-09-01T05:54:14.084Z,13.77
2022-09-01T05:56:44.008Z,14.07
2022-09-01T05:59:28.333Z,12.97
2022-09-01T06:01:56.139Z,14.03
2022-09-01T06:04:25.718Z,14.37
2022-09-01T06:07:05.931Z,13.93
2022-09-01T06:09:38.353Z,13.73
2022-09-01T06:12:06.898Z,13.87
2022-09-01T06:14:34.970Z,13.03
2022-09-01T06:17:03.321Z,14.60
2022-09-01T06:19:34.773Z,14.73
2022-09-01T06:22:04.149Z,14.93
2022-09-01T06:24:30.836Z,13.60
2022-09-01T06:26:57.913Z,15.23
2022-09-01T06:29:24.664Z,15.10
2022-09-01T06:31:52.910Z,14.57
2022-09-01T06:34:20.550Z,15.50
2022-09-01T06:36:50.406Z,15.77
2022-09-01T06:39:20.416Z,15.03
2022-09-01T06:41:53.219Z,16.20
2022-09-01T06:44:24.770Z,14.97
2022-09-01T06:46:52.538Z,16.37
2022-09-01T06:49:21.688Z,16.83
2022-09-01T06:51:51.868Z,16.23
2022-09-01T06:54:21.085Z,15.90
2022-09-01T06:56:51.890Z,16.47
2022-09-01T06:59:21.915Z,17.50
2022-09-01T07:01:49.876Z,17.60
2022-09-01T07:04:20.258Z,16.60
2022-09-01T07:09:46.908Z,16.03
2022-09-01T07:12:25.996Z,16.63
2022-09-01T07:17:42.386Z,18.20
2022-09-01T07:20:27.239Z,17.63
2022-09-01T07:23:05.544Z,17.27
2022-09-01T07:25:48.295Z,17.23
2022-09-01T07:28:41.396Z,18.57
2022-09-01T07:39:51.416Z,17.93
2022-09-01T07:45:28.361Z,18.87
2022-09-01T07:47:56.543Z,18.07
2022-09-01T07:51:34.361Z,19.27
2022-09-01T07:53:12.739Z,17.00
2022-09-01T07:55:42.238Z,18.53
2022-09-01T07:58:11.941Z,17.37
2022-09-01T08:00:40.655Z,17.47
2022-09-01T08:03:07.455Z,18.30
2022-09-01T08:05:34.259Z,18.90
2022-09-01T08:08:01.697Z,18.93
2022-09-01T08:10:28.951Z,17.93
2022-09-01T08:12:57.037Z,18.67
2022-09-01T08:15:42.399Z,17.60
2022-09-01T08:18:14.296Z,18.30
2022-09-01T08:20:47.454Z,18.00
2022-09-01T08:23:18.521Z,17.47
2022-09-01T08:25:47.319Z,16.57
2022-09-01T08:28:15.518Z,17.37
2022-09-01T08:30:49.062Z,17.23
2022-09-01T08:33:19.662Z,16.87
2022-09-01T08:35:48.883Z,16.37
2022-09-01T08:38:16.043Z,15.37
2022-09-01T08:40:51.476Z,17.03
2022-09-01T08:43:54.757Z,16.03
2022-09-01T08:46:37.934Z,14.53
2022-09-01T08:49:24.673Z,15.97
2022-09-01T08:52:19.779Z,14.50
2022-09-01T08:55:15.035Z,14.70
2022-09-01T08:57:47.894Z,13.37
2022-09-01T09:00:20.363Z,13.77
2022-09-01T09:03:41.157Z,11.70
2022-09-01T09:06:36.650Z,13.07
2022-09-01T09:09:06.474Z,13.60
2022-09-01T09:11:58.996Z,12.63
2022-09-01T09:15:04.388Z,12.63
2022-09-01T09:17:37.134Z,13.07
2022-09-01T09:20:06.225Z,14.77
2022-09-01T09:22:33.726Z,12.90
2022-09-01T09:25:19.521Z,13.70
2022-09-01T09:27:49.413Z,12.67
2022-09-01T09:30:26.493Z,13.50
2022-09-01T09:35:50.900Z,10.90
2022-09-01T09:38:29.610Z,11.97
2022-09-01T09:43:56.031Z,10.63
2022-09-01T09:46:46.043Z,10.90
2022-09-01T09:49:34.896Z,10.50
2022-09-01T09:52:10.516Z,11.03
2022-09-01T09:54:40.471Z,11.00
2022-09-01T09:57:13.390Z,10.37
2022-09-01T10:00:04.850Z,11.73
2022-09-01T10:02:36.321Z,10.57
2022-09-01T10:05:24.772Z,12.77
2022-09-01T10:07:52.218Z,12.40
2022-09-01T10:10:28.119Z,12.10
2022-09-01T10:12:56.737Z,11.37
2022-09-01T10:15:26.946Z,11.73
2022-09-01T10:18:19.552Z,11.93
2022-09-01T10:20:53.259Z,11.00
2022-09-01T10:23:20.062Z,11.03
2022-09-01T10:25:50.750Z,10.47
2022-09-01T10:28:24.446Z,10.87
2022-09-01T10:30:53.994Z,10.93
2022-09-01T10:33:22.941Z,9.43
2022-09-01T10:35:53.286Z,9.90
2022-09-01T10:38:25.514Z,10.60
2022-09-01T10:41:08.719Z,11.13
2022-09-01T10:43:38.444Z,10.83
2022-09-01T10:46:24.777Z,11.80
2022-09-01T10:48:55.954Z,10.70
2022-09-01T10:51:29.705Z,10.97
2022-09-01T10:54:04.052Z,10.93
2022-09-01T10:56:44.318Z,10.43
2022-09-01T10:59:35.739Z,11.43
2022-09-01T11:05:12.120Z,10.83
2022-09-01T11:10:44.769Z,10.73
2022-09-01T11:13:34.634Z,9.13
2022-09-01T11:19:21.746Z,8.90
2022-09-01T11:22:02.723Z,8.90
2022-09-01T11:24:38.510Z,7.37
2022-09-01T11:27:09.485Z,7.90
2022-09-01T11:29:55.964Z,8.63
2022-09-01T11:32:28.106Z,7.67
2022-09-01T11:34:57.319Z,7.50
2022-09-01T11:37:27.578Z,7.77
2022-09-01T11:40:05.035Z,8.13
2022-09-01T11:42:45.906Z,8.57
2022-09-01T11:45:32.036Z,8.50
2022-09-01T11:48:03.596Z,8.03
2022-09-01T11:50:34.153Z,12.17
2022-09-01T11:53:21.827Z,17.50
2022-09-01T11:55:51.837Z,10.07
2022-09-01T11:58:27.869Z,7.83
2022-09-01T12:01:12.413Z,6.87
2022-09-01T12:03:39.299Z,7.83
2022-09-01T12:06:09.515Z,7.73
2022-09-01T12:08:42.860Z,7.13
2022-09-01T12:11:20.663Z,7.70
2022-09-01T12:14:11.112Z,7.73
2022-09-01T12:16:42.696Z,7.43
2022-09-01T12:19:24.082Z,8.00
2022-09-01T12:22:13.800Z,7.67
2022-09-01T12:24:46.038Z,8.37
2022-09-01T12:27:13.317Z,8.57
2022-09-01T12:29:40.495Z,7.53
2022-09-01T12:32:08.464Z,8.33
2022-09-01T12:34:44.726Z,8.17
2022-09-01T12:37:24.830Z,8.07
2022-09-01T12:39:54.976Z,9.00
2022-09-01T12:42:21.531Z,7.97
2022-09-01T12:45:09.017Z,8.13
2022-09-01T12:47:48.008Z,8.43
2022-09-01T12:50:16.521Z,9.43
2022-09-01T12:52:52.469Z,7.87
2022-09-01T12:58:12.709Z,7.87
2022-09-01T13:01:07.070Z,8.90
2022-09-01T13:03:42.851Z,8.70
2022-09-01T13:06:10.150Z,8.33
2022-09-01T13:08:37.646Z,8.80
2022-09-01T13:11:04.508Z,9.20
2022-09-01T13:13:32.020Z,8.47
2022-09-01T13:16:02.602Z,8.90
2022-09-01T13:18:30.400Z,9.23
2022-09-01T13:20:57.857Z,8.93
2022-09-01T13:23:24.657Z,8.83
2022-09-01T13:25:51.681Z,8.73
2022-09-01T13:28:19.039Z,8.50
2022-09-01T13:31:28.441Z,9.10
2022-09-01T13:36:43.769Z,9.03
2022-09-01T13:39:12.646Z,9.20
2022-09-01T13:41:39.602Z,8.63
2022-09-01T13:44:06.337Z,9.23
2022-09-01T13:46:59.071Z,9.17
2022-09-01T13:52:09.782Z,9.40
2022-09-01T13:54:36.509Z,9.10
2022-09-01T13:57:03.238Z,9.30
2022-09-01T13:59:30.396Z,8.60
2022-09-01T14:01:57.136Z,8.77
2022-09-01T14:04:23.859Z,9.60
2022-09-01T14:06:50.567Z,8.97
2022-09-01T14:09:18.178Z,8.63
2022-09-01T14:11:45.296Z,8.30
2022-09-01T14:14:12.010Z,8.13
2022-09-01T14:16:38.707Z,8.03
2022-09-01T14:19:05.832Z,8.50
2022-09-01T14:21:32.481Z,8.03
2022-09-01T14:24:00.281Z,8.63
2022-09-01T14:26:28.116Z,8.37
2022-09-01T14:28:55.101Z,8.60
2022-09-01T14:31:22.662Z,9.07
2022-09-01T14:33:49.773Z,8.97
2022-09-01T14:36:20.291Z,8.93
2022-09-01T14:38:47.174Z,9.07
2022-09-01T14:41:15.303Z,9.20
2022-09-01T14:43:43.155Z,8.70
2022-09-01T14:46:11.610Z,9.17
2022-09-01T14:48:39.970Z,9.63
2022-09-01T14:51:08.475Z,8.47
2022-09-01T14:53:36.267Z,7.97
2022-09-01T14:56:03.502Z,7.83
2022-09-01T14:58:30.627Z,8.10
2022-09-01T15:01:11.984Z,8.73
2022-09-01T15:03:46.083Z,7.77
2022-09-01T15:06:14.657Z,7.33
2022-09-01T15:08:42.137Z,8.20
2022-09-01T15:11:15.856Z,7.23
2022-09-01T15:13:44.098Z,7.10
2022-09-01T15:16:20.453Z,9.20
2022-09-01T15:18:47.530Z,8.00
2022-09-01T15:21:30.798Z,8.97
2022-09-01T15:23:57.821Z,8.73
2022-09-01T15:26:24.549Z,8.73
2022-09-01T15:28:51.415Z,8.13
2022-09-01T15:31:19.585Z,8.33
2022-09-01T15:34:01.052Z,8.67
2022-09-01T15:36:29.058Z,8.60
2022-09-01T15:38:57.121Z,8.73
2022-09-01T15:41:33.155Z,8.13
2022-09-01T15:44:01.980Z,8.47
2022-09-01T15:46:32.724Z,8.77
2022-09-01T15:49:01.072Z,8.60
2022-09-01T15:51:31.054Z,8.17
2022-09-01T15:54:06.996Z,9.20
2022-09-01T15:56:33.872Z,8.40
2022-09-01T15:59:02.189Z,9.57
2022-09-01T16:01:32.942Z,9.53
2022-09-01T16:04:00.318Z,10.20
2022-09-01T16:06:27.056Z,13.27
2022-09-01T16:08:54.835Z,10.57
2022-09-01T16:11:27.585Z,10.03
2022-09-01T16:13:54.785Z,10.43
2022-09-01T16:16:31.850Z,10.57
2022-09-01T16:19:07.622Z,8.87
2022-09-01T16:22:01.777Z,9.23
2022-09-01T16:24:28.441Z,9.03
2022-09-01T16:26:57.053Z,8.03
2022-09-01T16:29:45.197Z,6.93
2022-09-01T16:32:13.227Z,8.13
2022-09-01T16:34:46.871Z,7.90
2022-09-01T16:37:39.724Z,8.43
2022-09-01T16:40:33.037Z,8.73
2022-09-01T16:43:05.529Z,7.83
2022-09-01T16:45:46.698Z,8.77
2022-09-01T16:48:32.391Z,8.97
2022-09-01T16:51:13.769Z,9.33
2022-09-01T16:54:10.410Z,9.10
2022-09-01T16:56:57.325Z,9.93
2022-09-01T17:00:05.099Z,9.00
2022-09-01T17:02:38.637Z,9.50
2022-09-01T17:05:22.090Z,10.10
2022-09-01T17:08:08.563Z,8.83
2022-09-01T17:10:45.822Z,9.07
2022-09-01T17:13:44.922Z,9.73
2022-09-01T17:16:22.231Z,9.70
2022-09-01T17:18:58.349Z,9.83
2022-09-01T17:21:45.126Z,9.57
2022-09-01T17:24:22.874Z,9.60
2022-09-01T17:26:51.174Z,9.50
2022-09-01T17:29:24.780Z,10.23
2022-09-01T17:32:05.796Z,9.23
2022-09-01T17:35:11.276Z,8.53
2022-09-01T17:38:03.887Z,10.70
2022-09-01T17:40:46.067Z,10.00
2022-09-01T17:43:20.856Z,9.67
2022-09-01T17:45:57.297Z,9.43
2022-09-01T17:48:47.930Z,10.23
2022-09-01T17:51:49.216Z,11.17
2022-09-01T17:54:34.909Z,10.47
2022-09-01T17:57:36.187Z,10.50
2022-09-01T18:00:18.006Z,9.57
2022-09-01T18:03:06.212Z,10.20
2022-09-01T18:05:53.761Z,9.90
2022-09-01T18:08:42.384Z,9.87
2022-09-01T18:11:14.664Z,10.50
2022-09-01T18:13:59.829Z,10.00
2022-09-01T18:16:30.884Z,10.03
2022-09-01T18:19:03.804Z,9.20
2022-09-01T18:21:36.306Z,9.03
2022-09-01T18:24:15.994Z,9.80
2022-09-01T18:26:47.050Z,9.87
2022-09-01T18:29:13.762Z,9.80
2022-09-01T18:32:21.148Z,10.70
2022-09-01T18:35:08.347Z,10.03
2022-09-01T18:37:58.070Z,9.90
2022-09-01T18:41:04.579Z,9.30
2022-09-01T18:43:45.064Z,9.33
2022-09-01T18:46:23.151Z,9.93
2022-09-01T18:49:12.868Z,9.07
2022-09-01T18:51:48.483Z,9.90
2022-09-01T18:54:24.566Z,9.80
2022-09-01T18:57:00.294Z,9.53
2022-09-01T18:59:37.217Z,9.80
2022-09-01T19:02:22.768Z,9.93
2022-09-01T19:04:58.801Z,10.57
2022-09-01T19:07:39.325Z,10.47
2022-09-01T19:10:24.354Z,10.77
2022-09-01T19:13:00.718Z,8.97
2022-09-01T19:15:40.898Z,8.43
2022-09-01T19:18:32.866Z,9.10
2022-09-01T19:21:31.145Z,9.10
2022-09-01T19:24:10.724Z,7.77
2022-09-01T19:26:42.832Z,7.30
2022-09-01T19:29:17.774Z,8.20
2022-09-01T19:31:50.750Z,7.93
2022-09-01T19:34:25.531Z,8.53
2022-09-01T19:36:55.631Z,8.57
2022-09-01T19:39:26.788Z,7.83
2022-09-01T19:42:14.826Z,7.43
2022-09-01T19:45:13.706Z,7.67
2022-09-01T19:48:01.670Z,7.27
2022-09-01T19:50:41.926Z,7.13
2022-09-01T19:53:25.678Z,7.17
2022-09-01T19:55:58.500Z,6.43
2022-09-01T19:58:42.051Z,6.87
2022-09-01T20:01:14.416Z,6.90
2022-09-01T20:03:46.770Z,7.07
2022-09-01T20:06:36.400Z,7.70
2022-09-01T20:09:25.390Z,7.30
2022-09-01T20:12:30.368Z,7.87
2022-09-01T20:15:24.275Z,7.40
2022-09-01T20:18:00.213Z,6.67
2022-09-01T20:20:38.003Z,6.50
2022-09-01T20:23:14.881Z,6.93
2022-09-01T20:25:53.793Z,7.73
2022-09-01T20:28:41.939Z,8.33
2022-09-01T20:31:17.227Z,7.60
2022-09-01T20:33:50.737Z,7.73
2022-09-01T20:36:24.433Z,7.73
2022-09-01T20:39:19.178Z,7.43
2022-09-01T20:42:10.018Z,7.60
2022-09-01T20:44:52.840Z,8.13
2022-09-01T20:47:21.258Z,7.67
2022-09-01T20:49:48.712Z,8.53
2022-09-01T20:52:30.615Z,7.57
2022-09-01T20:55:29.646Z,7.27
2022-09-01T20:58:05.013Z,8.07
2022-09-01T21:00:41.645Z,8.00
2022-09-01T21:03:45.461Z,8.23
2022-09-01T21:06:23.109Z,7.47
2022-09-01T21:09:28.573Z,7.33
2022-09-01T21:11:59.169Z,8.27
2022-09-01T21:14:35.359Z,8.83
2022-09-01T21:17:17.486Z,8.37
2022-09-01T21:20:03.141Z,7.80
2022-09-01T21:22:30.127Z,7.90
2022-09-01T21:24:57.026Z,8.43
2022-09-01T21:27:28.842Z,8.23
2022-09-01T21:30:04.993Z,8.03
2022-09-01T21:32:33.783Z,8.00
2022-09-01T21:35:01.365Z,7.53
2022-09-01T21:37:29.134Z,8.40
2022-09-01T21:39:57.111Z,8.97
2022-09-01T21:42:40.217Z,8.50
2022-09-01T21:45:09.653Z,8.83
2022-09-01T21:47:36.728Z,8.90
2022-09-01T21:50:04.167Z,8.40
2022-09-01T21:52:30.805Z,7.60
2022-09-01T21:54:57.435Z,8.30
2022-09-01T21:57:24.215Z,7.77
2022-09-01T21:59:51.537Z,8.27
2022-09-01T22:02:20.168Z,9.13
2022-09-01T22:04:47.353Z,8.53
2022-09-01T22:07:15.341Z,8.27
2022-09-01T22:09:43.542Z,9.13
2022-09-01T22:12:10.854Z,9.03
2022-09-01T22:14:37.610Z,8.70
2022-09-01T22:17:04.649Z,9.03
2022-09-01T22:19:35.791Z,9.63
2022-09-01T22:22:03.256Z,8.70
2022-09-01T22:24:30.253Z,9.20
2022-09-01T22:26:57.091Z,9.33
2022-09-01T22:29:23.765Z,9.07
2022-09-01T22:31:50.480Z,8.80
2022-09-01T22:34:17.130Z,9.60
2022-09-01T22:36:46.958Z,9.13
2022-09-01T22:39:15.914Z,9.13
2022-09-01T22:41:42.760Z,9.53
2022-09-01T22:44:10.691Z,9.77
2022-09-01T22:46:40.635Z,9.03
2022-09-01T22:49:09.085Z,8.83
2022-09-01T22:51:38.614Z,9.17
2022-09-01T22:54:08.110Z,8.73
2022-09-01T22:56:38.054Z,9.27
2022-09-01T22:59:09.652Z,9.00
2022-09-01T23:01:39.712Z,8.97
2022-09-01T23:04:08.152Z,8.33
2022-09-01T23:06:38.631Z,8.70
2022-09-01T23:09:08.552Z,8.77
2022-09-01T23:11:35.278Z,9.30
2022-09-01T23:14:03.890Z,9.10
2022-09-01T23:16:31.431Z,9.23
2022-09-01T23:18:58.261Z,8.70
2022-09-01T23:21:29.086Z,9.90
2022-09-01T23:23:58.562Z,8.83
2022-09-01T23:26:26.897Z,9.13
2022-09-01T23:28:54.066Z,8.90
2022-09-01T23:31:24.760Z,9.17
2022-09-01T23:33:52.081Z,9.67
2022-09-01T23:36:21.743Z,9.03
2022-09-01T23:38:48.978Z,9.77
2022-09-01T23:41:23.191Z,9.33
2022-09-01T23:43:51.410Z,9.53
2022-09-01T23:46:29.640Z,10.53
2022-09-01T23:48:56.334Z,9.37
2022-09-01T23:51:24.673Z,9.17
2022-09-01T23:53:51.995Z,10.47
2022-09-01T23:56:21.965Z,10.03
2022-09-01T23:58:49.091Z,9.93
